createdAt,value
2022-11-25T00:02:20.414Z,18.27
2022-11-25T00:05:09.380Z,17.57
2022-11-25T00:08:02.210Z,21.47
2022-11-25T00:10:50.799Z,19.80
2022-11-25T00:13:41.189Z,17.60
2022-11-25T00:16:29.819Z,19.10
2022-11-25T00:19:19.752Z,17.03
2022-11-25T00:22:11.851Z,24.73
2022-11-25T00:25:00.406Z,15.40
2022-11-25T00:27:56.517Z,34.63
2022-11-25T00:30:49.614Z,17.63
2022-11-25T00:33:40.394Z,20.03
2022-11-25T00:36:32.517Z,16.60
2022-11-25T00:39:25.643Z,18.13
2022-11-25T00:42:34.492Z,24.53
2022-11-25T00:45:25.302Z,18.77
2022-11-25T00:48:16.373Z,16.87
2022-11-25T00:51:06.224Z,17.30
2022-11-25T00:53:59.264Z,20.57
2022-11-25T00:56:51.678Z,27.40
2022-11-25T00:59:42.063Z,31.37
2022-11-25T01:02:30.729Z,24.90
2022-11-25T01:05:23.473Z,23.97
2022-11-25T01:08:12.043Z,20.43
2022-11-25T01:11:02.483Z,20.10
2022-11-25T01:13:56.595Z,20.33
2022-11-25T01:16:55.441Z,19.80
2022-11-25T01:19:44.050Z,22.37
2022-11-25T01:22:34.495Z,22.07
2022-11-25T01:25:28.118Z,20.83
2022-11-25T01:28:21.151Z,18.80
2022-11-25T01:31:14.279Z,21.50
2022-11-25T01:34:08.114Z,20.90
2022-11-25T01:36:56.684Z,20.67
2022-11-25T01:39:46.887Z,19.70
2022-11-25T01:42:39.181Z,21.63
2022-11-25T01:45:38.968Z,19.50
2022-11-25T01:48:45.683Z,20.50
2022-11-25T01:51:39.978Z,26.67
2022-11-25T01:54:29.856Z,20.80
2022-11-25T01:57:25.575Z,21.23
2022-11-25T02:00:14.617Z,19.93
2022-11-25T02:03:10.970Z,21.60
2022-11-25T02:06:02.189Z,21.63
2022-11-25T02:08:55.119Z,24.07
2022-11-25T02:11:46.399Z,23.30
2022-11-25T02:14:37.790Z,19.27
2022-11-25T02:17:32.396Z,22.73
2022-11-25T02:20:27.746Z,20.77
2022-11-25T02:23:25.515Z,20.70
2022-11-25T02:26:17.570Z,18.77
2022-11-25T02:29:13.105Z,20.20
2022-11-25T02:32:02.872Z,20.13
2022-11-25T02:34:53.161Z,21.33
2022-11-25T02:37:43.364Z,20.00
2022-11-25T02:40:32.206Z,19.53
2022-11-25T02:43:26.860Z,18.47
2022-11-25T02:46:22.871Z,18.07
2022-11-25T02:49:13.033Z,20.77
2022-11-25T02:52:10.804Z,19.63
2022-11-25T02:55:00.538Z,18.27
2022-11-25T02:57:51.566Z,19.77
2022-11-25T03:00:44.826Z,16.90
2022-11-25T03:03:38.317Z,19.00
2022-11-25T03:06:28.823Z,16.53
2022-11-25T03:09:19.285Z,21.73
2022-11-25T03:12:22.473Z,17.27
2022-11-25T03:15:18.010Z,17.93
2022-11-25T03:18:10.448Z,20.47
2022-11-25T03:21:03.657Z,19.00
2022-11-25T03:23:52.186Z,20.00
2022-11-25T03:26:41.859Z,18.87
2022-11-25T03:29:32.788Z,20.50
2022-11-25T03:32:21.475Z,19.07
2022-11-25T03:35:16.253Z,22.10
2022-11-25T03:38:07.208Z,21.10
2022-11-25T03:40:57.447Z,20.43
2022-11-25T03:43:51.896Z,20.90
2022-11-25T03:46:40.428Z,23.17
2022-11-25T03:49:31.650Z,18.57
2022-11-25T03:52:21.668Z,22.87
2022-11-25T03:55:13.781Z,21.40
2022-11-25T03:58:04.395Z,22.33
2022-11-25T04:00:54.650Z,24.20
2022-11-25T04:03:43.220Z,20.00
2022-11-25T04:06:32.095Z,20.80
2022-11-25T04:09:27.209Z,23.30
2022-11-25T04:12:33.583Z,20.03
2022-11-25T04:15:30.768Z,20.07
2022-11-25T04:18:20.278Z,22.23
2022-11-25T04:21:13.424Z,20.63
2022-11-25T04:24:03.179Z,21.50
2022-11-25T04:27:06.827Z,20.10
2022-11-25T04:30:00.271Z,18.70
2022-11-25T04:32:48.835Z,22.97
2022-11-25T04:35:38.480Z,18.57
2022-11-25T04:38:31.574Z,23.70
2022-11-25T04:41:30.406Z,18.77
2022-11-25T04:44:18.956Z,21.50
2022-11-25T04:47:14.989Z,20.97
2022-11-25T04:50:08.680Z,17.27
2022-11-25T04:52:58.697Z,19.47
2022-11-25T04:55:49.125Z,18.03
2022-11-25T04:58:56.377Z,20.77
2022-11-25T05:01:44.906Z,15.33
2022-11-25T05:04:37.300Z,18.20
2022-11-25T05:07:33.532Z,17.43
2022-11-25T05:10:24.162Z,17.83
2022-11-25T05:13:22.464Z,15.80
2022-11-25T05:16:20.292Z,16.40
2022-11-25T05:19:21.015Z,14.13
2022-11-25T05:22:15.226Z,15.57
2022-11-25T05:25:05.860Z,13.10
2022-11-25T05:27:56.057Z,15.90
2022-11-25T05:30:47.049Z,13.53
2022-11-25T05:33:43.363Z,15.93
2022-11-25T05:36:35.270Z,13.87
2022-11-25T05:39:29.195Z,15.90
2022-11-25T05:42:24.337Z,13.80
2022-11-25T05:45:20.805Z,16.67
2022-11-25T05:48:09.343Z,14.30
2022-11-25T05:51:14.354Z,17.27
2022-11-25T05:54:06.426Z,16.93
2022-11-25T05:56:59.852Z,14.30
2022-11-25T05:59:53.736Z,16.17
2022-11-25T06:02:45.864Z,13.30
2022-11-25T06:05:36.215Z,14.20
2022-11-25T06:08:24.808Z,13.83
2022-11-25T06:11:14.555Z,13.40
2022-11-25T06:14:04.602Z,14.50
2022-11-25T06:16:53.387Z,14.10
2022-11-25T06:19:42.015Z,15.57
2022-11-25T06:22:30.591Z,16.60
2022-11-25T06:25:21.147Z,14.40
2022-11-25T06:28:13.468Z,12.80
2022-11-25T06:31:07.862Z,11.70
2022-11-25T06:33:59.131Z,11.50
2022-11-25T06:36:47.727Z,14.57
2022-11-25T06:39:36.308Z,11.50
2022-11-25T06:42:24.964Z,11.50
2022-11-25T06:45:13.571Z,12.30
2022-11-25T06:48:03.574Z,13.30
2022-11-25T06:51:00.022Z,16.27
2022-11-25T06:53:50.839Z,11.97
2022-11-25T06:56:39.379Z,12.57
2022-11-25T06:59:28.030Z,11.60
2022-11-25T07:02:16.649Z,16.07
2022-11-25T07:05:07.026Z,11.77
2022-11-25T07:07:59.941Z,14.10
2022-11-25T07:10:48.641Z,11.13
2022-11-25T07:13:37.265Z,13.90
2022-11-25T07:16:26.277Z,18.60
2022-11-25T07:19:15.508Z,15.60
2022-11-25T07:22:05.549Z,11.40
2022-11-25T07:24:55.495Z,9.90
2022-11-25T07:27:44.087Z,12.80
2022-11-25T07:33:41.453Z,9.77
2022-11-25T07:36:30.524Z,16.00
2022-11-25T07:39:21.757Z,13.10
2022-11-25T07:42:10.353Z,12.40
2022-11-25T07:45:00.831Z,12.57
2022-11-25T07:47:49.453Z,13.93
2022-11-25T07:50:38.479Z,11.17
2022-11-25T07:53:27.101Z,9.43
2022-11-25T07:56:17.677Z,15.23
2022-11-25T07:59:06.605Z,9.57
2022-11-25T08:01:56.334Z,15.93
2022-11-25T08:04:44.979Z,10.77
2022-11-25T08:07:36.674Z,11.97
2022-11-25T08:10:25.646Z,13.30
2022-11-25T08:13:18.530Z,9.30
2022-11-25T08:16:07.476Z,10.17
2022-11-25T08:18:56.485Z,11.60
2022-11-25T08:21:47.863Z,9.77
2022-11-25T08:24:36.588Z,13.57
2022-11-25T08:27:25.164Z,13.00
2022-11-25T08:30:15.529Z,12.50
2022-11-25T08:33:07.290Z,10.50
2022-11-25T08:35:56.070Z,12.70
2022-11-25T08:38:45.366Z,10.53
2022-11-25T08:41:34.649Z,11.80
2022-11-25T08:44:23.259Z,11.07
2022-11-25T08:47:13.495Z,11.13
2022-11-25T08:50:02.144Z,12.00
2022-11-25T08:52:50.725Z,12.57
2022-11-25T08:55:39.761Z,10.33
2022-11-25T08:58:31.416Z,12.43
2022-11-25T09:01:20.956Z,14.53
2022-11-25T09:04:11.347Z,14.30
2022-11-25T09:06:59.970Z,12.57
2022-11-25T09:09:50.921Z,8.93
2022-11-25T09:12:39.509Z,11.00
2022-11-25T09:15:28.600Z,10.03
2022-11-25T09:18:20.010Z,12.40
2022-11-25T09:21:13.084Z,12.10
2022-11-25T09:24:01.669Z,9.20
2022-11-25T09:26:51.124Z,10.83
2022-11-25T09:29:39.984Z,11.97
2022-11-25T09:32:30.608Z,11.93
2022-11-25T09:35:19.439Z,13.60
2022-11-25T09:38:09.390Z,11.70
2022-11-25T09:41:01.572Z,12.93
2022-11-25T09:44:12.622Z,11.90
2022-11-25T09:47:06.119Z,10.43
2022-11-25T09:50:02.671Z,10.40
2022-11-25T09:52:56.496Z,8.47
2022-11-25T09:55:47.543Z,13.10
2022-11-25T09:58:37.208Z,10.03
2022-11-25T10:01:27.422Z,12.27
2022-11-25T10:04:20.932Z,12.80
2022-11-25T10:07:15.428Z,11.67
2022-11-25T10:10:08.283Z,9.47
2022-11-25T10:12:59.298Z,12.10
2022-11-25T10:15:50.376Z,12.83
2022-11-25T10:18:54.579Z,11.60
2022-11-25T10:21:43.406Z,12.53
2022-11-25T10:24:32.010Z,11.60
2022-11-25T10:27:21.529Z,11.43
2022-11-25T10:30:15.525Z,14.70
2022-11-25T10:33:10.309Z,10.03
2022-11-25T10:36:04.615Z,12.10
2022-11-25T10:38:58.397Z,11.33
2022-11-25T10:41:52.642Z,10.30
2022-11-25T10:44:42.425Z,12.70
2022-11-25T10:47:38.347Z,11.53
2022-11-25T10:50:32.725Z,15.50
2022-11-25T10:53:26.418Z,12.10
2022-11-25T10:56:20.247Z,12.73
2022-11-25T10:59:14.689Z,12.77
2022-11-25T11:02:19.100Z,11.23
2022-11-25T11:05:21.053Z,16.20
2022-11-25T11:08:21.450Z,11.70
2022-11-25T11:11:11.640Z,12.67
2022-11-25T11:14:01.688Z,15.90
2022-11-25T11:16:54.036Z,11.07
2022-11-25T11:19:42.667Z,15.63
2022-11-25T11:22:33.657Z,13.27
2022-11-25T11:25:28.503Z,12.03
2022-11-25T11:28:27.672Z,12.43
2022-11-25T11:31:20.314Z,11.23
2022-11-25T11:34:20.019Z,12.60
2022-11-25T11:37:21.263Z,13.13
2022-11-25T11:40:27.547Z,14.50
2022-11-25T11:43:27.910Z,12.50
2022-11-25T11:46:22.711Z,12.13
2022-11-25T11:49:19.596Z,11.40
2022-11-25T11:52:11.430Z,11.13
2022-11-25T11:55:02.620Z,15.27
2022-11-25T11:57:59.840Z,13.50
2022-11-25T12:01:00.392Z,14.17
2022-11-25T12:04:00.373Z,13.43
2022-11-25T12:06:55.015Z,10.57
2022-11-25T12:09:52.523Z,12.50
2022-11-25T12:12:48.799Z,10.20
2022-11-25T12:15:41.108Z,12.90
2022-11-25T12:18:36.323Z,9.70
2022-11-25T12:21:33.154Z,10.70
2022-11-25T12:24:26.928Z,9.97
2022-11-25T12:27:17.356Z,11.53
2022-11-25T12:30:09.662Z,12.37
2022-11-25T12:33:05.076Z,11.67
2022-11-25T12:35:59.287Z,12.47
2022-11-25T12:38:50.997Z,14.47
2022-11-25T12:41:43.787Z,9.50
2022-11-25T12:44:37.000Z,11.07
2022-11-25T12:47:25.867Z,13.73
2022-11-25T12:50:18.022Z,11.30
2022-11-25T12:53:12.526Z,13.03
2022-11-25T12:56:02.877Z,14.30
2022-11-25T12:59:02.295Z,11.20
2022-11-25T13:01:59.135Z,12.20
2022-11-25T13:08:21.775Z,13.17
2022-11-25T13:10:55.757Z,12.33
2022-11-25T13:11:24.573Z,11.60
2022-11-25T13:14:21.565Z,11.73
2022-11-25T13:17:12.189Z,12.90
2022-11-25T13:20:19.778Z,12.70
2022-11-25T13:23:24.172Z,11.43
2022-11-25T13:26:32.568Z,15.00
2022-11-25T13:29:39.933Z,11.90
2022-11-25T13:32:31.173Z,12.20
2022-11-25T13:35:37.987Z,11.47
2022-11-25T13:38:44.664Z,12.73
2022-11-25T13:41:38.307Z,14.33
2022-11-25T13:44:31.273Z,14.33
2022-11-25T13:47:33.001Z,10.53
2022-11-25T13:50:28.971Z,11.80
2022-11-25T13:53:31.772Z,10.53
2022-11-25T13:56:39.430Z,12.50
2022-11-25T13:59:37.503Z,11.50
2022-11-25T14:02:34.737Z,11.00
2022-11-25T14:05:37.820Z,13.57
2022-11-25T14:08:35.092Z,14.13
2022-11-25T14:11:37.913Z,13.63
2022-11-25T14:14:38.156Z,12.20
2022-11-25T14:17:43.095Z,12.03
2022-11-25T14:20:37.855Z,11.00
2022-11-25T14:23:35.752Z,12.60
2022-11-25T14:26:48.632Z,16.17
2022-11-25T14:29:41.739Z,14.60
2022-11-25T14:32:32.288Z,16.10
2022-11-25T14:35:24.806Z,14.23
2022-11-25T14:38:17.748Z,12.80
2022-11-25T14:41:08.881Z,11.40
2022-11-25T14:43:59.693Z,14.27
2022-11-25T14:46:56.497Z,12.03
2022-11-25T14:49:52.015Z,12.60
2022-11-25T14:52:51.331Z,11.13
2022-11-25T14:55:44.616Z,13.63
2022-11-25T14:58:33.253Z,11.67
2022-11-25T15:01:23.124Z,11.60
2022-11-25T15:04:24.817Z,14.70
2022-11-25T15:07:26.355Z,14.23
2022-11-25T15:10:31.244Z,13.20
2022-11-25T15:13:34.509Z,17.13
2022-11-25T15:16:24.947Z,14.80
2022-11-25T15:19:22.568Z,13.30
2022-11-25T15:22:28.998Z,13.70
2022-11-25T15:25:21.387Z,13.70
2022-11-25T15:28:19.650Z,13.60
2022-11-25T15:31:10.361Z,14.50
2022-11-25T15:34:00.210Z,16.07
2022-11-25T15:36:54.207Z,12.50
2022-11-25T15:39:46.709Z,13.73
2022-11-25T15:42:39.612Z,16.17
2022-11-25T15:45:35.644Z,15.67
2022-11-25T15:48:27.768Z,11.43
2022-11-25T15:51:23.004Z,13.57
2022-11-25T15:54:23.734Z,14.83
2022-11-25T15:57:19.975Z,16.60
2022-11-25T16:00:16.633Z,12.10
2022-11-25T16:03:05.365Z,14.53
2022-11-25T16:05:54.609Z,15.03
2022-11-25T16:08:55.733Z,10.73
2022-11-25T16:11:47.492Z,16.27
2022-11-25T16:14:38.158Z,14.97
2022-11-25T16:17:31.432Z,12.63
2022-11-25T16:20:20.461Z,16.60
2022-11-25T16:23:09.496Z,13.27
2022-11-25T16:26:01.100Z,14.53
2022-11-25T16:28:58.454Z,14.60
2022-11-25T16:31:47.122Z,15.40
2022-11-25T16:34:36.168Z,11.47
2022-11-25T16:37:25.239Z,14.10
2022-11-25T16:40:14.198Z,13.77
2022-11-25T16:43:04.818Z,15.67
2022-11-25T16:45:55.622Z,15.70
2022-11-25T16:48:44.204Z,16.00
2022-11-25T16:51:32.765Z,15.67
2022-11-25T16:54:21.450Z,13.97
2022-11-25T16:57:12.344Z,15.07
2022-11-25T17:00:02.942Z,18.00
2022-11-25T17:02:52.960Z,15.70
2022-11-25T17:05:41.543Z,16.43
2022-11-25T17:08:30.204Z,14.63
2022-11-25T17:11:20.931Z,17.37
2022-11-25T17:14:17.496Z,19.30
2022-11-25T17:17:06.243Z,13.70
2022-11-25T17:19:57.481Z,15.33
2022-11-25T17:22:46.112Z,16.43
2022-11-25T17:25:37.063Z,15.57
2022-11-25T17:28:25.837Z,14.20
2022-11-25T17:31:14.426Z,14.53
2022-11-25T17:34:03.064Z,18.30
2022-11-25T17:36:52.984Z,20.83
2022-11-25T17:39:41.568Z,16.50
2022-11-25T17:42:32.629Z,17.53
2022-11-25T17:45:22.507Z,15.20
2022-11-25T17:48:12.052Z,17.70
2022-11-25T17:51:05.936Z,19.50
2022-11-25T17:53:57.357Z,14.67
2022-11-25T17:56:52.128Z,23.23
2022-11-25T17:59:41.187Z,20.07
2022-11-25T18:02:29.794Z,17.90
2022-11-25T18:05:20.271Z,26.70
2022-11-25T18:08:08.847Z,21.73
2022-11-25T18:11:01.202Z,23.50
2022-11-25T18:13:52.360Z,24.37
2022-11-25T18:16:41.455Z,21.50
2022-11-25T18:19:32.829Z,26.37
2022-11-25T18:22:24.819Z,22.00
2022-11-25T18:25:20.533Z,19.77
2022-11-25T18:28:12.983Z,23.27
2022-11-25T18:31:04.161Z,27.43
2022-11-25T18:33:52.909Z,23.57
2022-11-25T18:36:41.496Z,21.63
2022-11-25T18:39:30.268Z,23.40
2022-11-25T18:42:27.403Z,24.33
2022-11-25T18:45:18.965Z,23.30
2022-11-25T18:48:13.677Z,20.93
2022-11-25T18:51:02.271Z,20.77
2022-11-25T18:53:53.655Z,25.83
2022-11-25T18:56:42.624Z,23.93
2022-11-25T18:59:32.953Z,25.40
2022-11-25T19:02:22.983Z,20.47
2022-11-25T19:05:20.074Z,20.00
2022-11-25T19:08:14.130Z,20.10
2022-11-25T19:11:03.978Z,23.60
2022-11-25T19:13:53.410Z,22.87
2022-11-25T19:16:42.246Z,23.47
2022-11-25T19:19:37.596Z,21.67
2022-11-25T19:22:26.219Z,18.87
2022-11-25T19:25:14.909Z,23.77
2022-11-25T19:28:03.511Z,23.57
2022-11-25T19:30:57.824Z,23.23
2022-11-25T19:33:55.969Z,24.80
2022-11-25T19:36:48.828Z,21.80
2022-11-25T19:39:39.839Z,25.03
2022-11-25T19:42:31.566Z,22.57
2022-11-25T19:45:21.134Z,25.63
2022-11-25T19:48:13.690Z,21.17
2022-11-25T19:51:07.395Z,18.77
2022-11-25T19:53:58.517Z,22.40
2022-11-25T19:56:47.389Z,21.50
2022-11-25T19:59:36.018Z,20.83
2022-11-25T20:02:27.694Z,21.80
2022-11-25T20:05:18.839Z,21.77
2022-11-25T20:08:11.012Z,22.10
2022-11-25T20:11:00.981Z,21.37
2022-11-25T20:13:52.776Z,21.27
2022-11-25T20:16:43.010Z,22.97
2022-11-25T20:19:31.680Z,22.40
2022-11-25T20:22:20.836Z,24.57
2022-11-25T20:25:16.124Z,21.17
2022-11-25T20:28:11.103Z,22.13
2022-11-25T20:31:02.904Z,17.00
2022-11-25T20:33:51.527Z,19.73
2022-11-25T20:36:42.512Z,22.17
2022-11-25T20:39:31.080Z,18.23
2022-11-25T20:42:19.741Z,19.60
2022-11-25T20:45:14.975Z,19.73
2022-11-25T20:48:06.288Z,17.73
2022-11-25T20:50:57.389Z,17.40
2022-11-25T20:53:52.781Z,19.33
2022-11-25T20:56:43.675Z,20.73
2022-11-25T20:59:46.030Z,15.80
2022-11-25T21:02:44.016Z,16.70
2022-11-25T21:05:34.720Z,18.27
2022-11-25T21:08:24.228Z,20.23
2022-11-25T21:11:22.819Z,19.70
2022-11-25T21:14:20.513Z,15.40
2022-11-25T21:17:10.986Z,16.60
2022-11-25T21:20:01.979Z,16.17
2022-11-25T21:22:55.139Z,19.00
2022-11-25T21:25:49.358Z,18.17
2022-11-25T21:28:42.040Z,13.63
2022-11-25T21:31:35.941Z,16.37
2022-11-25T21:34:30.597Z,13.63
2022-11-25T21:37:28.632Z,17.50
2022-11-25T21:40:34.002Z,20.00
2022-11-25T21:43:27.012Z,20.00
2022-11-25T21:46:21.190Z,14.30
2022-11-25T21:49:26.733Z,16.43
2022-11-25T21:52:21.561Z,17.50
2022-11-25T21:55:19.188Z,15.93
2022-11-25T21:58:08.748Z,15.57
2022-11-25T22:01:04.143Z,17.10
2022-11-25T22:03:55.160Z,14.03
2022-11-25T22:06:44.252Z,14.23
2022-11-25T22:09:35.573Z,18.23
2022-11-25T22:12:32.618Z,13.23
2022-11-25T22:15:24.662Z,13.17
2022-11-25T22:18:18.829Z,15.47
2022-11-25T22:21:07.632Z,14.87
2022-11-25T22:24:00.118Z,13.70
2022-11-25T22:26:57.464Z,14.03
2022-11-25T22:29:48.282Z,15.10
2022-11-25T22:32:38.675Z,15.57
2022-11-25T22:35:29.366Z,13.97
2022-11-25T22:38:22.040Z,22.07
2022-11-25T22:41:15.562Z,13.37
2022-11-25T22:44:10.036Z,14.30
2022-11-25T22:47:00.228Z,15.60
2022-11-25T22:49:49.367Z,11.47
2022-11-25T22:52:38.044Z,19.87
2022-11-25T22:55:30.517Z,9.90
2022-11-25T22:58:20.328Z,14.20
2022-11-25T23:01:15.263Z,12.60
2022-11-25T23:04:07.443Z,11.97
2022-11-25T23:06:57.774Z,11.50
2022-11-25T23:09:48.611Z,12.73
2022-11-25T23:12:37.221Z,9.43
2022-11-25T23:15:28.520Z,12.07
2022-11-25T23:18:24.945Z,11.00
2022-11-25T23:21:30.902Z,13.10
2022-11-25T23:24:19.575Z,8.17
2022-11-25T23:27:08.204Z,10.80
2022-11-25T23:29:56.775Z,10.80
2022-11-25T23:32:53.179Z,14.20
2022-11-25T23:35:43.626Z,11.20
2022-11-25T23:38:35.157Z,12.30
2022-11-25T23:41:29.451Z,12.67
2022-11-25T23:44:25.195Z,11.30
2022-11-25T23:47:21.470Z,13.37
2022-11-25T23:50:16.760Z,12.40
2022-11-25T23:53:10.430Z,10.37
2022-11-25T23:56:02.298Z,9.20
2022-11-25T23:58:52.868Z,15.93
